createdAt,value
2018-12-18T00:03:47.110Z,101148.59
2018-12-18T00:08:50.307Z,101145.17
2018-12-18T00:13:53.526Z,101148.50
2018-12-18T00:18:56.744Z,101146.69
2018-12-18T00:24:00.125Z,101159.48
2018-12-18T00:29:03.426Z,101152.49
2018-12-18T00:34:06.642Z,101158.45
2018-12-18T00:39:14.677Z,101149.66
2018-12-18T00:44:17.911Z,101156.25
2018-12-18T00:49:21.158Z,101164.16
2018-12-18T00:54:24.555Z,101164.02
2018-12-18T00:59:28.298Z,101159.46
2018-12-18T01:04:31.552Z,101158.92
2018-12-18T01:09:34.770Z,101154.53
2018-12-18T01:14:37.957Z,101165.42
2018-12-18T01:19:41.150Z,101170.70
2018-12-18T01:24:44.441Z,101166.75
2018-12-18T01:29:47.706Z,101167.92
2018-12-18T01:34:50.900Z,101165.86
2018-12-18T01:39:54.125Z,101164.05
2018-12-18T01:44:57.414Z,101162.53
2018-12-18T01:50:00.614Z,101164.97
2018-12-18T01:55:06.209Z,101168.58
2018-12-18T02:00:09.393Z,101168.64
2018-12-18T02:05:12.596Z,101179.77
2018-12-18T02:10:15.848Z,101182.95
2018-12-18T02:15:19.130Z,101189.34
2018-12-18T02:20:22.325Z,101193.36
2018-12-18T02:25:25.578Z,101202.34
2018-12-18T02:30:28.805Z,101200.30
2018-12-18T02:35:32.021Z,101205.52
2018-12-18T02:40:35.272Z,101201.36
2018-12-18T02:45:38.485Z,101193.02
2018-12-18T02:50:41.693Z,101194.82
2018-12-18T02:55:44.923Z,101187.88
2018-12-18T03:00:48.202Z,101190.52
2018-12-18T03:05:51.398Z,101200.94
2018-12-18T03:10:54.701Z,101192.73
2018-12-18T03:15:58.089Z,101184.27
2018-12-18T03:21:01.323Z,101185.81
2018-12-18T03:26:04.586Z,101177.27
2018-12-18T03:31:07.777Z,101182.48
2018-12-18T03:36:11.051Z,101185.06
2018-12-18T03:41:14.217Z,101191.03
2018-12-18T03:46:17.521Z,101190.41
2018-12-18T03:51:20.794Z,101191.84
2018-12-18T03:56:24.022Z,101201.16
2018-12-18T04:01:27.263Z,101201.80
2018-12-18T04:06:30.465Z,101203.95
2018-12-18T04:11:35.653Z,101211.86
2018-12-18T04:16:38.906Z,101206.09
2018-12-18T04:21:42.109Z,101216.13
2018-12-18T04:26:45.332Z,101211.97
2018-12-18T04:31:48.515Z,101213.23
2018-12-18T04:36:51.918Z,101207.50
2018-12-18T04:41:55.106Z,101215.48
2018-12-18T04:46:58.313Z,101219.74
2018-12-18T04:52:01.590Z,101220.66
2018-12-18T04:57:04.892Z,101225.05
2018-12-18T05:02:08.078Z,101221.09
2018-12-18T05:07:11.294Z,101223.80
2018-12-18T05:12:14.559Z,101229.45
2018-12-18T05:17:17.771Z,101235.33
2018-12-18T05:22:20.981Z,101231.22
2018-12-18T05:27:24.192Z,101242.03
2018-12-18T05:32:27.385Z,101246.66
2018-12-18T05:37:30.579Z,101242.45
2018-12-18T05:42:33.786Z,101246.08
2018-12-18T05:47:36.971Z,101253.35
2018-12-18T05:52:40.148Z,101246.66
2018-12-18T05:57:43.330Z,101249.25
2018-12-18T06:02:46.517Z,101255.76
2018-12-18T06:07:49.702Z,101258.84
2018-12-18T06:12:52.893Z,101266.27
2018-12-18T06:17:56.073Z,101274.27
2018-12-18T06:22:59.389Z,101284.55
2018-12-18T06:28:02.654Z,101285.52
2018-12-18T06:33:05.860Z,101288.16
2018-12-18T06:38:09.048Z,101299.88
2018-12-18T06:43:12.222Z,101297.20
2018-12-18T06:48:15.454Z,101303.25
2018-12-18T06:53:18.633Z,101304.01
2018-12-18T06:58:21.833Z,101305.92
2018-12-18T07:03:25.005Z,101317.12
2018-12-18T07:08:28.249Z,101308.38
2018-12-18T07:13:31.565Z,101306.09
2018-12-18T07:18:34.727Z,101311.02
2018-12-18T07:23:37.896Z,101309.94
2018-12-18T07:28:41.263Z,101310.91
2018-12-18T07:33:44.434Z,101307.77
2018-12-18T07:38:47.638Z,101315.45
2018-12-18T07:43:50.813Z,101314.45
2018-12-18T07:48:54.049Z,101310.46
2018-12-18T07:53:57.239Z,101302.55
2018-12-18T07:59:00.491Z,101301.92
2018-12-18T08:04:03.782Z,101306.75
2018-12-18T08:09:08.353Z,101311.98
2018-12-18T08:14:11.630Z,101313.86
2018-12-18T08:19:14.822Z,101316.15
2018-12-18T08:24:18.064Z,101311.45
2018-12-18T08:29:21.257Z,101316.35
2018-12-18T08:34:24.477Z,101322.02
2018-12-18T08:39:27.689Z,101337.85
2018-12-18T08:44:30.857Z,101340.14
2018-12-18T08:49:34.035Z,101325.97
2018-12-18T08:54:37.233Z,101338.97
2018-12-18T08:59:40.441Z,101340.11
2018-12-18T09:04:43.653Z,101334.34
2018-12-18T09:09:46.841Z,101340.84
2018-12-18T09:14:55.561Z,101340.50
2018-12-18T09:19:58.856Z,101343.38
2018-12-18T09:25:02.073Z,101346.22
2018-12-18T09:30:07.257Z,101344.02
2018-12-18T09:35:10.479Z,101337.70
2018-12-18T09:40:15.645Z,101331.23
2018-12-18T09:45:18.909Z,101330.98
2018-12-18T09:50:22.169Z,101321.66
2018-12-18T09:55:25.341Z,101314.42
2018-12-18T10:00:28.613Z,101314.82
2018-12-18T10:05:31.829Z,101321.59
2018-12-18T10:10:35.027Z,101315.63
2018-12-18T10:15:38.185Z,101316.45
2018-12-18T10:20:41.366Z,101318.27
2018-12-18T10:25:44.578Z,101317.09
2018-12-18T10:30:47.774Z,101312.43
2018-12-18T10:35:50.931Z,101307.83
2018-12-18T10:40:54.111Z,101291.64
2018-12-18T10:45:57.344Z,101288.25
2018-12-18T10:51:00.538Z,101287.75
2018-12-18T10:56:03.780Z,101278.35
2018-12-18T11:01:12.353Z,101269.89
2018-12-18T11:06:15.567Z,101260.50
2018-12-18T11:11:18.749Z,101250.70
2018-12-18T11:16:21.926Z,101251.07
2018-12-18T11:21:26.022Z,101241.86
2018-12-18T11:26:29.197Z,101233.09
2018-12-18T11:31:32.368Z,101224.42
2018-12-18T11:36:35.540Z,101222.42
2018-12-18T11:41:38.729Z,101214.58
2018-12-18T11:46:41.905Z,101195.63
2018-12-18T11:51:45.099Z,101187.30
2018-12-18T11:56:48.289Z,101162.00
2018-12-18T12:01:51.606Z,101164.03
2018-12-18T12:06:54.881Z,101166.06
2018-12-18T12:11:58.114Z,101159.91
2018-12-18T12:17:01.670Z,101165.52
2018-12-18T12:22:04.977Z,101160.11
2018-12-18T12:27:13.444Z,101149.17
2018-12-18T12:32:16.737Z,101138.37
2018-12-18T12:37:19.951Z,101147.36
2018-12-18T12:42:23.130Z,101131.75
2018-12-18T12:47:26.312Z,101152.20
2018-12-18T12:52:29.498Z,101134.59
2018-12-18T12:57:32.663Z,101135.72
2018-12-18T13:02:35.830Z,101131.86
2018-12-18T13:07:39.065Z,101120.94
2018-12-18T13:12:42.250Z,101114.64
2018-12-18T13:17:45.511Z,101104.73
2018-12-18T13:22:48.683Z,101096.05
2018-12-18T13:27:51.859Z,101094.95
2018-12-18T13:32:55.042Z,101101.83
2018-12-18T13:37:58.378Z,101096.84
2018-12-18T13:43:01.554Z,101088.28
2018-12-18T13:48:04.809Z,101088.25
2018-12-18T13:53:07.986Z,101085.88
2018-12-18T13:58:11.236Z,101078.38
2018-12-18T14:03:14.407Z,101074.34
2018-12-18T14:08:17.636Z,101070.32
2018-12-18T14:13:20.827Z,101073.78
2018-12-18T14:18:24.179Z,101078.71
2018-12-18T14:23:27.348Z,101067.56
2018-12-18T14:28:30.537Z,101072.93
2018-12-18T14:33:33.792Z,101068.52
2018-12-18T14:38:37.005Z,101061.30
2018-12-18T14:43:40.239Z,101057.44
2018-12-18T14:48:43.446Z,101046.87
2018-12-18T14:53:46.653Z,101056.86
2018-12-18T14:58:49.873Z,101053.03
2018-12-18T15:03:53.097Z,101053.17
2018-12-18T15:08:56.286Z,101052.19
2018-12-18T15:13:59.484Z,101049.92
2018-12-18T15:19:02.790Z,101050.76
2018-12-18T15:24:06.106Z,101047.08
2018-12-18T15:29:09.326Z,101050.59
2018-12-18T15:34:12.501Z,101043.99
2018-12-18T15:39:15.853Z,101045.72
2018-12-18T15:44:19.081Z,101042.74
2018-12-18T15:49:22.262Z,101046.75
2018-12-18T15:54:25.455Z,101041.28
2018-12-18T15:59:29.260Z,101050.25
2018-12-18T16:04:32.446Z,101061.22
2018-12-18T16:09:35.641Z,101066.49
2018-12-18T16:14:38.846Z,101066.14
2018-12-18T16:19:42.084Z,101065.98
2018-12-18T16:24:45.284Z,101073.41
2018-12-18T16:29:48.472Z,101069.38
2018-12-18T16:34:51.737Z,101073.19
2018-12-18T16:39:54.977Z,101059.33
2018-12-18T16:44:58.157Z,101063.98
2018-12-18T16:50:01.490Z,101057.56
2018-12-18T16:55:05.859Z,101059.01
2018-12-18T17:00:11.240Z,101060.78
2018-12-18T17:05:14.427Z,101056.00
2018-12-18T17:10:17.613Z,101064.39
2018-12-18T17:15:20.807Z,101067.63
2018-12-18T17:20:23.982Z,101059.15
2018-12-18T17:25:27.173Z,101049.07
2018-12-18T17:30:30.383Z,101044.39
2018-12-18T17:35:33.666Z,101049.28
2018-12-18T17:40:37.224Z,101056.77
2018-12-18T17:45:40.401Z,101047.61
2018-12-18T17:50:43.584Z,101049.76
2018-12-18T17:55:46.748Z,101058.31
2018-12-18T18:00:50.006Z,101048.28
2018-12-18T18:05:53.181Z,101041.13
2018-12-18T18:10:56.343Z,101028.95
2018-12-18T18:15:59.510Z,101031.59
2018-12-18T18:21:02.690Z,101027.70
2018-12-18T18:26:05.969Z,101029.48
2018-12-18T18:31:09.146Z,101020.89
2018-12-18T18:36:12.325Z,101012.58
2018-12-18T18:41:15.545Z,101018.76
2018-12-18T18:46:18.785Z,101015.21
2018-12-18T18:51:21.986Z,101010.46
2018-12-18T18:56:25.453Z,101006.44
2018-12-18T19:01:28.710Z,100995.78
2018-12-18T19:06:32.089Z,100980.97
2018-12-18T19:11:35.284Z,100986.01
2018-12-18T19:16:38.505Z,100976.08
2018-12-18T19:21:41.754Z,100972.82
2018-12-18T19:26:44.955Z,100971.38
2018-12-18T19:31:48.147Z,100963.70
2018-12-18T19:36:51.413Z,100966.72
2018-12-18T19:41:54.593Z,100969.77
2018-12-18T19:46:57.785Z,100966.94
2018-12-18T19:52:01.022Z,100953.72
2018-12-18T19:57:04.423Z,100944.17
2018-12-18T20:02:07.705Z,100941.08
2018-12-18T20:07:10.899Z,100935.46
2018-12-18T20:12:14.246Z,100932.61
2018-12-18T20:17:17.724Z,100937.58
2018-12-18T20:22:21.540Z,100930.77
2018-12-18T20:27:24.763Z,100929.16
2018-12-18T20:32:27.973Z,100921.66
2018-12-18T20:37:31.162Z,100927.24
2018-12-18T20:42:34.345Z,100922.70
2018-12-18T20:47:37.637Z,100911.83
2018-12-18T20:52:40.804Z,100907.72
2018-12-18T20:57:43.989Z,100900.81
2018-12-18T21:02:47.189Z,100895.55
2018-12-18T21:07:50.871Z,100878.63
2018-12-18T21:12:58.465Z,100873.00
2018-12-18T21:18:02.001Z,100862.41
2018-12-18T21:23:05.414Z,100859.31
2018-12-18T21:28:08.800Z,100854.23
2018-12-18T21:33:12.253Z,100846.73
2018-12-18T21:38:15.664Z,100853.10
2018-12-18T21:43:19.049Z,100841.80
2018-12-18T21:48:22.485Z,100834.38
2018-12-18T21:53:25.897Z,100824.41
2018-12-18T21:58:29.281Z,100826.05
2018-12-18T22:03:32.732Z,100818.55
2018-12-18T22:08:36.910Z,100811.99
2018-12-18T22:13:40.632Z,100807.15
2018-12-18T22:18:44.069Z,100792.48
2018-12-18T22:23:47.519Z,100782.95
2018-12-18T22:28:50.698Z,100767.09
2018-12-18T22:33:53.909Z,100754.48
2018-12-18T22:38:57.218Z,100752.46
2018-12-18T22:44:00.524Z,100748.73
2018-12-18T22:49:03.701Z,100745.42
2018-12-18T22:54:06.880Z,100733.61
2018-12-18T22:59:10.124Z,100729.00
2018-12-18T23:04:14.885Z,100717.38
2018-12-18T23:09:18.166Z,100714.16
2018-12-18T23:14:21.417Z,100709.90
2018-12-18T23:19:24.757Z,100721.19
2018-12-18T23:24:27.946Z,100715.25
2018-12-18T23:29:31.183Z,100706.19
2018-12-18T23:34:34.485Z,100698.25
2018-12-18T23:39:37.684Z,100682.02
2018-12-18T23:44:40.894Z,100669.44
2018-12-18T23:49:44.855Z,100655.45
2018-12-18T23:54:48.024Z,100646.87
2018-12-18T23:59:51.188Z,100640.50
